Terminal Aerodrome Forecast
Issued by NWS

Home | Current Version | Previous Version | Graphics & Text | Print | Product List | Glossary On
Versions: 1 2 3 4 5 6 7 8 9 10 11 12 13 14 15 16 17 18 19 20 21
000
FTUS43 KGRB 080900 AAA
TAFCWA
TAF AMD
KCWA 080923Z 0809/0906 30005KT P6SM VCSH SCT007 SCT025 OVC070
      TEMPO 0809/0811 4SM -SHRA BKN006 BKN025
     FM081100 29004KT 5SM BR SCT010 OVC025
     FM081600 30011KT P6SM VCSH SCT020 BKN060
     FM082300 30005KT P6SM SCT050 BKN100
      AMD LTD TO CLD VIS AND WIND TIL 081200=

USA.gov is the U.S. government's official web portal to all federal, state and local government web resources and services.